sensor_id;sensor_type;location;lat;lon;timestamp;P1;durP1;ratioP1;P2;durP2;ratioP2
17528;SDS011;8882;53.192;8.184;2023-04-15T07:04:54;9.80;;;4.93;;
17528;SDS011;8882;53.192;8.184;2023-04-15T07:07:20;9.47;;;5.50;;
17528;SDS011;8882;53.192;8.184;2023-04-15T07:09:46;11.03;;;4.73;;
17528;SDS011;8882;53.192;8.184;2023-04-15T07:12:12;9.30;;;4.90;;
17528;SDS011;8882;53.192;8.184;2023-04-15T07:14:37;9.60;;;4.63;;
17528;SDS011;8882;53.192;8.184;2023-04-15T07:17:03;8.10;;;4.60;;
17528;SDS011;8882;53.192;8.184;2023-04-15T07:19:28;7.77;;;4.83;;
17528;SDS011;8882;53.192;8.184;2023-04-15T07:21:54;9.47;;;4.83;;
17528;SDS011;8882;53.192;8.184;2023-04-15T07:24:19;9.67;;;4.40;;
17528;SDS011;8882;53.192;8.184;2023-04-15T07:26:47;5.70;;;4.10;;
17528;SDS011;8882;53.192;8.184;2023-04-15T07:29:12;7.80;;;4.40;;
17528;SDS011;8882;53.192;8.184;2023-04-15T07:31:38;8.17;;;4.37;;
17528;SDS011;8882;53.192;8.184;2023-04-15T07:34:05;8.37;;;4.30;;
17528;SDS011;8882;53.192;8.184;2023-04-15T07:36:31;6.40;;;4.20;;
17528;SDS011;8882;53.192;8.184;2023-04-15T07:38:57;6.73;;;4.20;;
17528;SDS011;8882;53.192;8.184;2023-04-15T07:41:22;6.53;;;4.50;;
17528;SDS011;8882;53.192;8.184;2023-04-15T07:43:48;6.40;;;4.03;;
17528;SDS011;8882;53.192;8.184;2023-04-15T07:46:13;5.80;;;4.27;;
17528;SDS011;8882;53.192;8.184;2023-04-15T07:48:39;5.77;;;3.87;;
17528;SDS011;8882;53.192;8.184;2023-04-15T07:51:05;5.87;;;4.47;;
17528;SDS011;8882;53.192;8.184;2023-04-15T07:53:30;9.93;;;4.60;;
17528;SDS011;8882;53.192;8.184;2023-04-15T07:55:57;5.90;;;4.13;;
17528;SDS011;8882;53.192;8.184;2023-04-15T07:58:22;6.97;;;4.23;;
17528;SDS011;8882;53.192;8.184;2023-04-15T08:00:48;8.37;;;4.00;;
17528;SDS011;8882;53.192;8.184;2023-04-15T08:03:13;6.73;;;4.33;;
17528;SDS011;8882;53.192;8.184;2023-04-15T08:05:39;6.80;;;3.83;;
17528;SDS011;8882;53.192;8.184;2023-04-15T08:08:05;7.80;;;4.47;;
17528;SDS011;8882;53.192;8.184;2023-04-15T08:10:30;6.73;;;3.63;;
17528;SDS011;8882;53.192;8.184;2023-04-15T08:12:56;6.20;;;3.80;;
17528;SDS011;8882;53.192;8.184;2023-04-15T08:15:22;5.67;;;3.73;;
17528;SDS011;8882;53.192;8.184;2023-04-15T08:17:47;7.67;;;3.40;;
17528;SDS011;8882;53.192;8.184;2023-04-15T08:20:13;7.70;;;3.37;;
17528;SDS011;8882;53.192;8.184;2023-04-15T08:22:39;6.57;;;3.90;;
17528;SDS011;8882;53.192;8.184;2023-04-15T08:25:05;5.57;;;3.17;;
17528;SDS011;8882;53.192;8.184;2023-04-15T08:27:31;6.93;;;3.80;;
17528;SDS011;8882;53.192;8.184;2023-04-15T08:29:56;4.47;;;3.43;;
17528;SDS011;8882;53.192;8.184;2023-04-15T08:32:22;3.70;;;2.93;;
17528;SDS011;8882;53.192;8.184;2023-04-15T08:34:47;4.40;;;2.73;;
17528;SDS011;8882;53.192;8.184;2023-04-15T08:37:13;4.83;;;3.43;;
17528;SDS011;8882;53.192;8.184;2023-04-15T08:39:39;4.27;;;3.13;;
17528;SDS011;8882;53.192;8.184;2023-04-15T08:42:06;6.30;;;3.20;;
17528;SDS011;8882;53.192;8.184;2023-04-15T08:44:35;2.50;;;2.30;;
17528;SDS011;8882;53.192;8.184;2023-04-15T08:47:02;4.87;;;3.10;;
17528;SDS011;8882;53.192;8.184;2023-04-15T08:49:31;5.03;;;2.60;;
17528;SDS011;8882;53.192;8.184;2023-04-15T08:51:58;5.37;;;2.60;;
17528;SDS011;8882;53.192;8.184;2023-04-15T08:54:24;3.70;;;2.77;;
17528;SDS011;8882;53.192;8.184;2023-04-15T08:56:51;6.67;;;2.63;;
17528;SDS011;8882;53.192;8.184;2023-04-15T08:59:18;3.00;;;2.30;;
17528;SDS011;8882;53.192;8.184;2023-04-15T09:01:45;4.30;;;2.27;;
17528;SDS011;8882;53.192;8.184;2023-04-15T09:04:12;4.03;;;2.53;;
17528;SDS011;8882;53.192;8.184;2023-04-15T09:06:38;5.67;;;3.27;;
17528;SDS011;8882;53.192;8.184;2023-04-15T09:09:04;2.60;;;2.40;;
17528;SDS011;8882;53.192;8.184;2023-04-15T09:11:30;2.37;;;2.10;;
17528;SDS011;8882;53.192;8.184;2023-04-15T09:13:55;4.30;;;2.90;;
17528;SDS011;8882;53.192;8.184;2023-04-15T09:16:21;4.07;;;2.43;;
17528;SDS011;8882;53.192;8.184;2023-04-15T09:18:47;4.00;;;2.40;;
17528;SDS011;8882;53.192;8.184;2023-04-15T09:21:14;4.13;;;2.43;;
17528;SDS011;8882;53.192;8.184;2023-04-15T09:23:41;2.53;;;2.20;;
17528;SDS011;8882;53.192;8.184;2023-04-15T09:26:19;6.27;;;2.70;;
17528;SDS011;8882;53.192;8.184;2023-04-15T09:28:53;5.13;;;2.93;;
17528;SDS011;8882;53.192;8.184;2023-04-15T09:31:38;5.07;;;3.00;;
17528;SDS011;8882;53.192;8.184;2023-04-15T09:34:05;4.70;;;2.87;;
17528;SDS011;8882;53.192;8.184;2023-04-15T09:39:12;5.73;;;2.87;;
17528;SDS011;8882;53.192;8.184;2023-04-15T09:41:37;6.17;;;2.97;;
17528;SDS011;8882;53.192;8.184;2023-04-15T09:44:04;3.40;;;2.80;;
17528;SDS011;8882;53.192;8.184;2023-04-15T09:46:42;3.13;;;2.70;;
17528;SDS011;8882;53.192;8.184;2023-04-15T09:49:09;2.70;;;2.40;;
17528;SDS011;8882;53.192;8.184;2023-04-15T09:51:37;3.43;;;2.50;;
17528;SDS011;8882;53.192;8.184;2023-04-15T09:54:02;3.97;;;2.60;;
17528;SDS011;8882;53.192;8.184;2023-04-15T09:56:35;2.77;;;1.93;;
17528;SDS011;8882;53.192;8.184;2023-04-15T09:59:06;3.33;;;2.13;;
17528;SDS011;8882;53.192;8.184;2023-04-15T10:01:32;2.77;;;2.37;;
17528;SDS011;8882;53.192;8.184;2023-04-15T10:03:58;4.83;;;2.63;;
17528;SDS011;8882;53.192;8.184;2023-04-15T10:06:27;3.33;;;2.20;;
17528;SDS011;8882;53.192;8.184;2023-04-15T10:08:54;2.97;;;1.93;;
17528;SDS011;8882;53.192;8.184;2023-04-15T10:11:20;3.37;;;2.13;;
17528;SDS011;8882;53.192;8.184;2023-04-15T10:13:50;3.23;;;2.00;;
17528;SDS011;8882;53.192;8.184;2023-04-15T10:16:18;3.93;;;2.10;;
17528;SDS011;8882;53.192;8.184;2023-04-15T10:18:45;3.07;;;2.23;;
17528;SDS011;8882;53.192;8.184;2023-04-15T10:21:12;4.27;;;2.20;;
17528;SDS011;8882;53.192;8.184;2023-04-15T10:23:42;2.73;;;2.00;;
17528;SDS011;8882;53.192;8.184;2023-04-15T10:26:11;3.37;;;1.83;;
17528;SDS011;8882;53.192;8.184;2023-04-15T10:28:38;4.23;;;2.10;;
17528;SDS011;8882;53.192;8.184;2023-04-15T10:31:04;3.13;;;2.20;;
17528;SDS011;8882;53.192;8.184;2023-04-15T10:33:31;1.87;;;1.73;;
17528;SDS011;8882;53.192;8.184;2023-04-15T10:35:57;2.70;;;2.10;;
17528;SDS011;8882;53.192;8.184;2023-04-15T10:38:34;3.40;;;2.00;;
17528;SDS011;8882;53.192;8.184;2023-04-15T10:41:11;5.30;;;2.40;;
17528;SDS011;8882;53.192;8.184;2023-04-15T10:43:53;2.17;;;1.83;;
17528;SDS011;8882;53.192;8.184;2023-04-15T10:46:23;2.20;;;1.90;;
17528;SDS011;8882;53.192;8.184;2023-04-15T10:49:00;2.00;;;1.80;;
17528;SDS011;8882;53.192;8.184;2023-04-15T10:51:32;4.83;;;2.20;;
17528;SDS011;8882;53.192;8.184;2023-04-15T10:53:58;2.93;;;2.17;;
17528;SDS011;8882;53.192;8.184;2023-04-15T10:56:24;2.47;;;2.00;;
17528;SDS011;8882;53.192;8.184;2023-04-15T10:58:51;7.20;;;2.67;;
17528;SDS011;8882;53.192;8.184;2023-04-15T11:01:18;2.93;;;2.40;;
17528;SDS011;8882;53.192;8.184;2023-04-15T11:03:47;4.40;;;2.53;;
17528;SDS011;8882;53.192;8.184;2023-04-15T11:06:13;2.97;;;2.40;;
17528;SDS011;8882;53.192;8.184;2023-04-15T11:08:57;3.40;;;2.37;;
17528;SDS011;8882;53.192;8.184;2023-04-15T11:14:32;1.80;;;1.70;;
17528;SDS011;8882;53.192;8.184;2023-04-15T11:16:59;4.33;;;2.03;;
17528;SDS011;8882;53.192;8.184;2023-04-15T11:19:25;5.13;;;2.00;;
17528;SDS011;8882;53.192;8.184;2023-04-15T11:22:05;3.13;;;1.90;;
17528;SDS011;8882;53.192;8.184;2023-04-15T11:24:31;4.17;;;2.27;;
17528;SDS011;8882;53.192;8.184;2023-04-15T11:26:57;4.37;;;2.17;;
17528;SDS011;8882;53.192;8.184;2023-04-15T11:29:27;3.17;;;2.30;;
17528;SDS011;8882;53.192;8.184;2023-04-15T11:32:03;2.90;;;2.03;;
17528;SDS011;8882;53.192;8.184;2023-04-15T11:34:30;5.37;;;2.23;;
17528;SDS011;8882;53.192;8.184;2023-04-15T11:36:56;2.13;;;1.90;;
17528;SDS011;8882;53.192;8.184;2023-04-15T11:39:22;2.33;;;2.13;;
17528;SDS011;8882;53.192;8.184;2023-04-15T11:41:47;2.90;;;2.27;;
17528;SDS011;8882;53.192;8.184;2023-04-15T11:44:16;5.10;;;2.23;;
17528;SDS011;8882;53.192;8.184;2023-04-15T11:46:42;6.07;;;2.63;;
17528;SDS011;8882;53.192;8.184;2023-04-15T11:49:08;4.00;;;2.50;;
17528;SDS011;8882;53.192;8.184;2023-04-15T11:51:34;5.60;;;2.50;;
17528;SDS011;8882;53.192;8.184;2023-04-15T11:53:59;3.63;;;3.27;;
17528;SDS011;8882;53.192;8.184;2023-04-15T11:56:25;5.87;;;3.40;;
17528;SDS011;8882;53.192;8.184;2023-04-15T11:58:58;3.73;;;2.67;;
17528;SDS011;8882;53.192;8.184;2023-04-15T12:04:16;4.40;;;2.90;;
17528;SDS011;8882;53.192;8.184;2023-04-15T12:06:47;4.37;;;2.70;;
17528;SDS011;8882;53.192;8.184;2023-04-15T12:09:13;6.10;;;3.20;;
17528;SDS011;8882;53.192;8.184;2023-04-15T12:11:49;4.10;;;2.93;;
17528;SDS011;8882;53.192;8.184;2023-04-15T12:14:26;6.63;;;3.43;;
17528;SDS011;8882;53.192;8.184;2023-04-15T12:16:54;6.20;;;3.13;;
17528;SDS011;8882;53.192;8.184;2023-04-15T12:19:37;9.20;;;3.13;;
17528;SDS011;8882;53.192;8.184;2023-04-15T12:22:05;4.03;;;3.17;;
17528;SDS011;8882;53.192;8.184;2023-04-15T12:24:35;6.27;;;3.30;;
17528;SDS011;8882;53.192;8.184;2023-04-15T12:27:06;3.97;;;3.53;;
17528;SDS011;8882;53.192;8.184;2023-04-15T12:29:33;6.93;;;2.97;;
17528;SDS011;8882;53.192;8.184;2023-04-15T12:32:07;8.87;;;4.37;;
17528;SDS011;8882;53.192;8.184;2023-04-15T12:34:35;5.40;;;3.33;;
17528;SDS011;8882;53.192;8.184;2023-04-15T12:37:05;7.77;;;4.53;;
17528;SDS011;8882;53.192;8.184;2023-04-15T12:39:34;10.00;;;4.57;;
17528;SDS011;8882;53.192;8.184;2023-04-15T12:42:00;12.23;;;5.00;;
17528;SDS011;8882;53.192;8.184;2023-04-15T12:44:27;10.90;;;5.80;;
17528;SDS011;8882;53.192;8.184;2023-04-15T12:46:53;9.00;;;4.83;;
17528;SDS011;8882;53.192;8.184;2023-04-15T12:49:22;10.03;;;5.27;;
17528;SDS011;8882;53.192;8.184;2023-04-15T12:51:49;9.67;;;5.67;;
17528;SDS011;8882;53.192;8.184;2023-04-15T12:54:16;10.37;;;5.87;;
17528;SDS011;8882;53.192;8.184;2023-04-15T12:56:42;13.40;;;5.77;;
17528;SDS011;8882;53.192;8.184;2023-04-15T12:59:08;15.27;;;5.90;;
17528;SDS011;8882;53.192;8.184;2023-04-15T13:01:33;13.50;;;6.77;;
17528;SDS011;8882;53.192;8.184;2023-04-15T13:03:59;12.90;;;6.73;;
17528;SDS011;8882;53.192;8.184;2023-04-15T13:06:25;14.57;;;6.60;;
17528;SDS011;8882;53.192;8.184;2023-04-15T13:08:51;15.87;;;6.83;;
17528;SDS011;8882;53.192;8.184;2023-04-15T13:11:19;17.63;;;7.43;;
17528;SDS011;8882;53.192;8.184;2023-04-15T13:13:45;12.30;;;6.97;;
17528;SDS011;8882;53.192;8.184;2023-04-15T13:16:10;21.30;;;7.93;;
17528;SDS011;8882;53.192;8.184;2023-04-15T13:18:36;18.13;;;8.37;;
17528;SDS011;8882;53.192;8.184;2023-04-15T13:21:01;18.83;;;8.53;;
17528;SDS011;8882;53.192;8.184;2023-04-15T13:23:27;18.27;;;7.90;;
17528;SDS011;8882;53.192;8.184;2023-04-15T13:25:53;21.83;;;8.50;;
17528;SDS011;8882;53.192;8.184;2023-04-15T13:28:18;21.17;;;8.60;;
17528;SDS011;8882;53.192;8.184;2023-04-15T13:30:44;19.33;;;7.87;;
17528;SDS011;8882;53.192;8.184;2023-04-15T13:33:10;19.63;;;8.37;;
17528;SDS011;8882;53.192;8.184;2023-04-15T13:35:36;24.20;;;9.77;;
17528;SDS011;8882;53.192;8.184;2023-04-15T13:38:02;21.73;;;9.70;;
17528;SDS011;8882;53.192;8.184;2023-04-15T13:40:27;23.30;;;9.47;;
17528;SDS011;8882;53.192;8.184;2023-04-15T13:42:53;22.33;;;9.30;;
17528;SDS011;8882;53.192;8.184;2023-04-15T13:45:18;26.60;;;10.10;;
17528;SDS011;8882;53.192;8.184;2023-04-15T13:47:44;20.10;;;9.23;;
17528;SDS011;8882;53.192;8.184;2023-04-15T13:50:10;21.13;;;9.30;;
17528;SDS011;8882;53.192;8.184;2023-04-15T13:52:35;22.20;;;8.73;;
17528;SDS011;8882;53.192;8.184;2023-04-15T13:55:01;25.77;;;10.03;;
17528;SDS011;8882;53.192;8.184;2023-04-15T13:57:27;20.70;;;9.20;;
17528;SDS011;8882;53.192;8.184;2023-04-15T13:59:53;33.30;;;10.27;;
17528;SDS011;8882;53.192;8.184;2023-04-15T14:02:20;29.23;;;11.00;;
17528;SDS011;8882;53.192;8.184;2023-04-15T14:04:45;27.47;;;11.73;;
17528;SDS011;8882;53.192;8.184;2023-04-15T14:07:11;31.20;;;10.50;;
17528;SDS011;8882;53.192;8.184;2023-04-15T14:09:36;32.73;;;11.67;;
17528;SDS011;8882;53.192;8.184;2023-04-15T14:12:02;31.57;;;11.67;;
17528;SDS011;8882;53.192;8.184;2023-04-15T14:14:28;34.37;;;13.43;;
17528;SDS011;8882;53.192;8.184;2023-04-15T14:16:53;36.40;;;12.57;;
17528;SDS011;8882;53.192;8.184;2023-04-15T14:19:20;39.73;;;13.17;;
17528;SDS011;8882;53.192;8.184;2023-04-15T14:21:46;29.37;;;12.73;;
17528;SDS011;8882;53.192;8.184;2023-04-15T14:24:11;32.57;;;13.73;;
17528;SDS011;8882;53.192;8.184;2023-04-15T14:26:37;34.80;;;13.10;;
17528;SDS011;8882;53.192;8.184;2023-04-15T14:29:02;34.70;;;13.47;;
17528;SDS011;8882;53.192;8.184;2023-04-15T14:31:28;39.70;;;14.00;;
17528;SDS011;8882;53.192;8.184;2023-04-15T14:33:53;35.60;;;14.43;;
17528;SDS011;8882;53.192;8.184;2023-04-15T14:36:19;50.33;;;15.00;;
17528;SDS011;8882;53.192;8.184;2023-04-15T14:38:44;35.90;;;15.57;;
17528;SDS011;8882;53.192;8.184;2023-04-15T14:41:10;38.50;;;14.80;;
17528;SDS011;8882;53.192;8.184;2023-04-15T14:43:36;40.07;;;16.97;;
17528;SDS011;8882;53.192;8.184;2023-04-15T14:46:01;38.43;;;15.63;;
17528;SDS011;8882;53.192;8.184;2023-04-15T14:48:27;39.87;;;16.43;;
17528;SDS011;8882;53.192;8.184;2023-04-15T14:50:53;38.33;;;16.30;;
17528;SDS011;8882;53.192;8.184;2023-04-15T14:53:18;33.67;;;14.40;;
17528;SDS011;8882;53.192;8.184;2023-04-15T14:55:44;37.43;;;15.80;;
17528;SDS011;8882;53.192;8.184;2023-04-15T14:58:09;37.73;;;15.93;;
17528;SDS011;8882;53.192;8.184;2023-04-15T15:00:36;37.33;;;17.43;;
17528;SDS011;8882;53.192;8.184;2023-04-15T15:03:05;42.70;;;17.17;;
17528;SDS011;8882;53.192;8.184;2023-04-15T15:05:42;39.10;;;15.97;;
17528;SDS011;8882;53.192;8.184;2023-04-15T15:08:10;39.00;;;16.47;;
17528;SDS011;8882;53.192;8.184;2023-04-15T15:10:37;34.90;;;16.47;;
17528;SDS011;8882;53.192;8.184;2023-04-15T15:13:05;35.63;;;17.40;;
17528;SDS011;8882;53.192;8.184;2023-04-15T15:15:32;40.13;;;16.93;;
17528;SDS011;8882;53.192;8.184;2023-04-15T15:17:58;36.17;;;17.33;;
17528;SDS011;8882;53.192;8.184;2023-04-15T15:20:24;37.40;;;18.20;;
17528;SDS011;8882;53.192;8.184;2023-04-15T15:22:50;34.70;;;17.40;;
17528;SDS011;8882;53.192;8.184;2023-04-15T15:25:15;35.90;;;16.77;;
17528;SDS011;8882;53.192;8.184;2023-04-15T15:27:41;37.33;;;17.37;;
17528;SDS011;8882;53.192;8.184;2023-04-15T15:30:07;35.97;;;17.77;;
17528;SDS011;8882;53.192;8.184;2023-04-15T15:32:32;32.80;;;17.67;;
17528;SDS011;8882;53.192;8.184;2023-04-15T15:34:58;37.40;;;17.23;;
17528;SDS011;8882;53.192;8.184;2023-04-15T15:37:24;29.27;;;16.17;;
17528;SDS011;8882;53.192;8.184;2023-04-15T15:39:50;35.40;;;17.20;;
17528;SDS011;8882;53.192;8.184;2023-04-15T15:42:17;31.50;;;16.27;;
17528;SDS011;8882;53.192;8.184;2023-04-15T15:44:43;32.00;;;15.03;;
17528;SDS011;8882;53.192;8.184;2023-04-15T15:47:09;26.03;;;15.27;;
17528;SDS011;8882;53.192;8.184;2023-04-15T15:49:35;31.77;;;15.97;;
17528;SDS011;8882;53.192;8.184;2023-04-15T15:52:01;31.60;;;15.13;;
17528;SDS011;8882;53.192;8.184;2023-04-15T15:54:26;26.47;;;16.37;;
17528;SDS011;8882;53.192;8.184;2023-04-15T15:56:53;29.60;;;15.40;;
17528;SDS011;8882;53.192;8.184;2023-04-15T15:59:18;30.60;;;14.33;;
17528;SDS011;8882;53.192;8.184;2023-04-15T16:01:44;30.77;;;14.80;;
17528;SDS011;8882;53.192;8.184;2023-04-15T16:04:09;28.00;;;15.60;;
17528;SDS011;8882;53.192;8.184;2023-04-15T16:06:35;27.87;;;15.10;;
17528;SDS011;8882;53.192;8.184;2023-04-15T16:09:00;27.60;;;14.70;;
17528;SDS011;8882;53.192;8.184;2023-04-15T16:11:26;29.00;;;15.40;;
17528;SDS011;8882;53.192;8.184;2023-04-15T16:13:52;29.30;;;14.80;;
17528;SDS011;8882;53.192;8.184;2023-04-15T16:16:18;31.30;;;15.60;;
17528;SDS011;8882;53.192;8.184;2023-04-15T16:18:44;25.40;;;13.77;;
17528;SDS011;8882;53.192;8.184;2023-04-15T16:21:09;30.13;;;15.00;;
17528;SDS011;8882;53.192;8.184;2023-04-15T16:23:35;31.30;;;14.50;;
17528;SDS011;8882;53.192;8.184;2023-04-15T16:26:01;22.63;;;14.00;;
17528;SDS011;8882;53.192;8.184;2023-04-15T16:28:27;26.63;;;14.30;;
17528;SDS011;8882;53.192;8.184;2023-04-15T16:30:52;25.40;;;13.73;;
17528;SDS011;8882;53.192;8.184;2023-04-15T16:33:19;24.17;;;12.43;;
17528;SDS011;8882;53.192;8.184;2023-04-15T16:35:45;25.93;;;13.63;;
17528;SDS011;8882;53.192;8.184;2023-04-15T16:38:10;29.70;;;14.00;;
17528;SDS011;8882;53.192;8.184;2023-04-15T16:40:36;26.03;;;12.87;;
17528;SDS011;8882;53.192;8.184;2023-04-15T16:43:02;22.43;;;13.77;;
17528;SDS011;8882;53.192;8.184;2023-04-15T16:45:28;19.77;;;11.63;;
17528;SDS011;8882;53.192;8.184;2023-04-15T16:47:53;23.07;;;13.20;;
17528;SDS011;8882;53.192;8.184;2023-04-15T16:50:20;22.83;;;12.57;;
17528;SDS011;8882;53.192;8.184;2023-04-15T16:52:46;25.27;;;13.50;;
17528;SDS011;8882;53.192;8.184;2023-04-15T16:55:11;26.17;;;12.67;;
17528;SDS011;8882;53.192;8.184;2023-04-15T16:57:37;23.10;;;13.37;;
17528;SDS011;8882;53.192;8.184;2023-04-15T17:00:02;21.30;;;12.40;;
17528;SDS011;8882;53.192;8.184;2023-04-15T17:02:28;19.80;;;12.63;;
17528;SDS011;8882;53.192;8.184;2023-04-15T17:04:53;24.87;;;12.50;;
17528;SDS011;8882;53.192;8.184;2023-04-15T17:07:19;23.87;;;13.10;;
17528;SDS011;8882;53.192;8.184;2023-04-15T17:09:45;23.67;;;13.47;;
17528;SDS011;8882;53.192;8.184;2023-04-15T17:12:10;20.07;;;12.10;;
17528;SDS011;8882;53.192;8.184;2023-04-15T17:14:36;21.67;;;12.37;;
17528;SDS011;8882;53.192;8.184;2023-04-15T17:17:02;21.83;;;12.20;;
17528;SDS011;8882;53.192;8.184;2023-04-15T17:19:28;18.73;;;12.17;;
17528;SDS011;8882;53.192;8.184;2023-04-15T17:21:53;21.50;;;11.87;;
17528;SDS011;8882;53.192;8.184;2023-04-15T17:24:19;25.93;;;12.77;;
17528;SDS011;8882;53.192;8.184;2023-04-15T17:26:44;20.70;;;12.03;;
17528;SDS011;8882;53.192;8.184;2023-04-15T17:29:11;20.33;;;12.93;;
17528;SDS011;8882;53.192;8.184;2023-04-15T17:31:37;19.23;;;11.43;;
17528;SDS011;8882;53.192;8.184;2023-04-15T17:34:02;20.07;;;12.37;;
17528;SDS011;8882;53.192;8.184;2023-04-15T17:36:28;23.20;;;13.43;;
17528;SDS011;8882;53.192;8.184;2023-04-15T17:38:54;20.17;;;12.30;;
17528;SDS011;8882;53.192;8.184;2023-04-15T17:41:20;22.10;;;12.67;;
17528;SDS011;8882;53.192;8.184;2023-04-15T17:43:46;21.73;;;11.93;;
17528;SDS011;8882;53.192;8.184;2023-04-15T17:46:12;22.67;;;11.83;;
17528;SDS011;8882;53.192;8.184;2023-04-15T17:48:37;24.17;;;13.10;;
17528;SDS011;8882;53.192;8.184;2023-04-15T17:51:03;20.20;;;12.30;;
17528;SDS011;8882;53.192;8.184;2023-04-15T17:53:28;20.20;;;12.03;;
17528;SDS011;8882;53.192;8.184;2023-04-15T17:55:54;24.67;;;12.87;;
17528;SDS011;8882;53.192;8.184;2023-04-15T17:58:21;20.83;;;11.13;;
17528;SDS011;8882;53.192;8.184;2023-04-15T18:00:46;19.50;;;12.27;;
17528;SDS011;8882;53.192;8.184;2023-04-15T18:03:12;18.47;;;12.13;;
17528;SDS011;8882;53.192;8.184;2023-04-15T18:05:38;21.83;;;12.03;;
17528;SDS011;8882;53.192;8.184;2023-04-15T18:08:04;21.57;;;11.90;;
17528;SDS011;8882;53.192;8.184;2023-04-15T18:10:32;23.67;;;12.50;;
17528;SDS011;8882;53.192;8.184;2023-04-15T18:12:57;25.60;;;12.50;;
17528;SDS011;8882;53.192;8.184;2023-04-15T18:15:23;19.07;;;11.13;;
17528;SDS011;8882;53.192;8.184;2023-04-15T18:17:49;23.20;;;12.10;;
17528;SDS011;8882;53.192;8.184;2023-04-15T18:20:15;20.70;;;12.27;;
17528;SDS011;8882;53.192;8.184;2023-04-15T18:22:41;20.33;;;11.73;;
17528;SDS011;8882;53.192;8.184;2023-04-15T18:25:07;19.97;;;11.83;;
17528;SDS011;8882;53.192;8.184;2023-04-15T18:27:33;18.43;;;10.37;;
17528;SDS011;8882;53.192;8.184;2023-04-15T18:29:59;17.80;;;11.57;;
17528;SDS011;8882;53.192;8.184;2023-04-15T18:32:25;22.67;;;12.00;;
17528;SDS011;8882;53.192;8.184;2023-04-15T18:34:53;21.00;;;11.77;;
17528;SDS011;8882;53.192;8.184;2023-04-15T18:37:20;16.90;;;11.60;;
17528;SDS011;8882;53.192;8.184;2023-04-15T18:39:45;17.07;;;11.37;;
17528;SDS011;8882;53.192;8.184;2023-04-15T18:42:11;18.87;;;11.20;;
17528;SDS011;8882;53.192;8.184;2023-04-15T18:44:36;17.90;;;11.20;;
17528;SDS011;8882;53.192;8.184;2023-04-15T18:47:02;20.17;;;12.50;;
17528;SDS011;8882;53.192;8.184;2023-04-15T18:49:29;19.73;;;11.23;;
17528;SDS011;8882;53.192;8.184;2023-04-15T18:51:57;18.17;;;10.93;;
17528;SDS011;8882;53.192;8.184;2023-04-15T18:54:22;18.87;;;10.80;;
17528;SDS011;8882;53.192;8.184;2023-04-15T18:56:48;16.83;;;9.93;;
17528;SDS011;8882;53.192;8.184;2023-04-15T18:59:15;17.17;;;10.93;;
17528;SDS011;8882;53.192;8.184;2023-04-15T19:01:41;15.53;;;10.77;;
17528;SDS011;8882;53.192;8.184;2023-04-15T19:04:06;18.27;;;11.20;;
17528;SDS011;8882;53.192;8.184;2023-04-15T19:06:32;16.70;;;9.83;;
17528;SDS011;8882;53.192;8.184;2023-04-15T19:08:57;18.87;;;10.47;;
17528;SDS011;8882;53.192;8.184;2023-04-15T19:11:23;18.30;;;10.53;;
17528;SDS011;8882;53.192;8.184;2023-04-15T19:13:49;20.87;;;11.57;;
17528;SDS011;8882;53.192;8.184;2023-04-15T19:16:16;15.83;;;10.57;;
17528;SDS011;8882;53.192;8.184;2023-04-15T19:18:41;18.97;;;10.90;;
17528;SDS011;8882;53.192;8.184;2023-04-15T19:21:07;19.27;;;10.57;;
17528;SDS011;8882;53.192;8.184;2023-04-15T19:23:33;20.30;;;10.13;;
17528;SDS011;8882;53.192;8.184;2023-04-15T19:25:59;16.73;;;10.77;;
17528;SDS011;8882;53.192;8.184;2023-04-15T19:28:25;17.23;;;10.43;;
17528;SDS011;8882;53.192;8.184;2023-04-15T19:30:52;17.13;;;10.57;;
17528;SDS011;8882;53.192;8.184;2023-04-15T19:33:18;22.57;;;11.60;;
17528;SDS011;8882;53.192;8.184;2023-04-15T19:35:43;20.40;;;11.30;;
17528;SDS011;8882;53.192;8.184;2023-04-15T19:38:09;17.43;;;10.77;;
17528;SDS011;8882;53.192;8.184;2023-04-15T19:40:34;19.07;;;11.17;;
17528;SDS011;8882;53.192;8.184;2023-04-15T19:43:00;20.87;;;10.97;;
17528;SDS011;8882;53.192;8.184;2023-04-15T19:45:25;18.07;;;10.53;;
17528;SDS011;8882;53.192;8.184;2023-04-15T19:47:52;24.43;;;11.87;;
17528;SDS011;8882;53.192;8.184;2023-04-15T19:50:17;18.70;;;11.10;;
17528;SDS011;8882;53.192;8.184;2023-04-15T19:52:48;18.27;;;11.00;;
17528;SDS011;8882;53.192;8.184;2023-04-15T19:55:14;20.83;;;11.70;;
17528;SDS011;8882;53.192;8.184;2023-04-15T19:57:39;19.13;;;11.70;;
17528;SDS011;8882;53.192;8.184;2023-04-15T20:00:05;17.03;;;10.17;;
17528;SDS011;8882;53.192;8.184;2023-04-15T20:02:31;19.33;;;11.33;;
17528;SDS011;8882;53.192;8.184;2023-04-15T20:04:56;25.10;;;11.30;;
17528;SDS011;8882;53.192;8.184;2023-04-15T20:07:22;22.07;;;11.13;;
17528;SDS011;8882;53.192;8.184;2023-04-15T20:09:47;19.23;;;10.47;;
17528;SDS011;8882;53.192;8.184;2023-04-15T20:12:15;18.87;;;11.57;;
17528;SDS011;8882;53.192;8.184;2023-04-15T20:14:41;20.13;;;10.73;;
17528;SDS011;8882;53.192;8.184;2023-04-15T20:17:06;20.10;;;11.73;;
17528;SDS011;8882;53.192;8.184;2023-04-15T20:19:32;18.10;;;11.93;;
17528;SDS011;8882;53.192;8.184;2023-04-15T20:21:57;18.60;;;11.47;;
17528;SDS011;8882;53.192;8.184;2023-04-15T20:24:23;17.43;;;11.37;;
17528;SDS011;8882;53.192;8.184;2023-04-15T20:26:48;20.00;;;11.23;;
17528;SDS011;8882;53.192;8.184;2023-04-15T20:29:14;18.03;;;11.30;;
17528;SDS011;8882;53.192;8.184;2023-04-15T20:31:39;18.23;;;12.03;;
17528;SDS011;8882;53.192;8.184;2023-04-15T20:34:05;19.77;;;10.43;;
17528;SDS011;8882;53.192;8.184;2023-04-15T20:36:30;20.57;;;10.83;;
17528;SDS011;8882;53.192;8.184;2023-04-15T20:38:56;15.43;;;11.07;;
17528;SDS011;8882;53.192;8.184;2023-04-15T20:41:21;22.60;;;12.13;;
17528;SDS011;8882;53.192;8.184;2023-04-15T20:43:47;19.57;;;12.27;;
17528;SDS011;8882;53.192;8.184;2023-04-15T20:46:12;19.70;;;11.43;;
17528;SDS011;8882;53.192;8.184;2023-04-15T20:48:38;17.63;;;11.17;;
17528;SDS011;8882;53.192;8.184;2023-04-15T20:51:04;21.17;;;11.40;;
17528;SDS011;8882;53.192;8.184;2023-04-15T20:53:29;20.13;;;10.30;;
17528;SDS011;8882;53.192;8.184;2023-04-15T20:55:55;19.43;;;11.20;;
17528;SDS011;8882;53.192;8.184;2023-04-15T20:58:20;23.07;;;10.97;;
